Arlington, Kansas
Current Conditions -  °F | °C
As of 6:08 AM on Saturday 25 Oct 2014 (Local Time) from KHUT Reporting Station
Moderate Fog Moderate Fog  
Wind Chill: 12°   Ceiling: 100
Heat Index: 12°   Visibility: 0.25mi
Dew Point: 11°   Wind: 0mph
Humidity: 93%   Direction: NA
Pressure: 30.05"   Gusts: NA
Location:  37.9°N, 98.18°W
Report Text: KHUT 251108Z AUTO 00000KT 1/4SM R13/1400VP6000FT FG VV001 12/11 A3005 RMK AO2 T01170106
Loading
Personal Weather Stations






























Interactive Weather Map
Tropical Storm Tracking
New forecast layout! Learn more

10-Day Weather Forecast

Advertisements
Track Severe Weather on mobile